createdAt,value
2018-07-02T00:01:22.049Z,102150.72
2018-07-02T00:03:50.361Z,102150.72
2018-07-02T00:06:39.237Z,102144.59
2018-07-02T00:09:07.689Z,102141.16
2018-07-02T00:11:35.989Z,102141.72
2018-07-02T00:14:04.294Z,102151.05
2018-07-02T00:16:32.613Z,102150.79
2018-07-02T00:19:00.873Z,102144.70
2018-07-02T00:21:29.259Z,102146.59
2018-07-02T00:23:57.508Z,102147.59
2018-07-02T00:26:25.801Z,102148.84
2018-07-02T00:28:54.161Z,102140.94
2018-07-02T00:31:22.449Z,102143.83
2018-07-02T00:33:50.712Z,102140.27
2018-07-02T00:36:19.009Z,102148.47
2018-07-02T00:38:47.285Z,102147.96
2018-07-02T00:41:15.557Z,102145.19
2018-07-02T00:43:43.846Z,102146.75
2018-07-02T00:46:12.102Z,102145.62
2018-07-02T00:48:40.386Z,102144.83
2018-07-02T00:51:08.651Z,102134.87
2018-07-02T00:53:37.096Z,102142.33
2018-07-02T00:56:05.605Z,102134.61
2018-07-02T00:58:33.889Z,102135.58
2018-07-02T01:01:02.245Z,102134.19
2018-07-02T01:03:30.574Z,102135.31
2018-07-02T01:05:58.829Z,102130.45
2018-07-02T01:08:27.135Z,102127.38
2018-07-02T01:10:55.412Z,102128.13
2018-07-02T01:13:23.788Z,102127.93
2018-07-02T01:15:52.133Z,102130.88
2018-07-02T01:18:20.421Z,102129.79
2018-07-02T01:20:48.682Z,102132.03
2018-07-02T01:23:17.028Z,102130.72
2018-07-02T01:25:45.316Z,102125.74
2018-07-02T01:28:13.600Z,102122.98
2018-07-02T01:30:42.014Z,102122.36
2018-07-02T01:33:10.274Z,102121.42
2018-07-02T01:35:38.556Z,102119.48
2018-07-02T01:38:06.852Z,102120.89
2018-07-02T01:40:35.132Z,102118.72
2018-07-02T01:43:03.421Z,102118.13
2018-07-02T01:45:31.713Z,102114.28
2018-07-02T01:47:59.970Z,102112.97
2018-07-02T01:50:28.257Z,102114.38
2018-07-02T01:52:56.521Z,102116.94
2018-07-02T01:55:24.807Z,102121.66
2018-07-02T01:57:53.068Z,102115.76
2018-07-02T02:00:21.364Z,102112.56
2018-07-02T02:02:49.676Z,102116.79
2018-07-02T02:05:17.976Z,102109.83
2018-07-02T02:07:46.260Z,102114.91
2018-07-02T02:10:14.572Z,102111.79
2018-07-02T02:12:42.840Z,102115.00
2018-07-02T02:15:11.216Z,102108.87
2018-07-02T02:17:39.497Z,102112.95
2018-07-02T02:20:07.849Z,102110.53
2018-07-02T02:22:36.118Z,102110.34
2018-07-02T02:25:04.702Z,102107.47
2018-07-02T02:27:33.005Z,102103.11
2018-07-02T02:30:01.581Z,102110.12
2018-07-02T02:32:29.900Z,102113.59
2018-07-02T02:34:58.169Z,102111.53
2018-07-02T02:37:26.461Z,102105.32
2018-07-02T02:39:54.728Z,102109.50
2018-07-02T02:42:23.027Z,102108.89
2018-07-02T02:44:51.328Z,102112.36
2018-07-02T02:47:19.639Z,102108.23
2018-07-02T02:49:47.898Z,102108.72
2018-07-02T02:52:16.201Z,102104.86
2018-07-02T02:54:44.472Z,102108.05
2018-07-02T02:57:13.044Z,102112.23
2018-07-02T02:59:41.314Z,102108.89
2018-07-02T03:02:09.707Z,102109.59
2018-07-02T03:04:38.026Z,102118.13
2018-07-02T03:07:06.765Z,102111.97
2018-07-02T03:09:35.169Z,102115.67
2018-07-02T03:12:03.457Z,102109.56
2018-07-02T03:14:32.056Z,102107.40
2018-07-02T03:17:00.457Z,102105.94
2018-07-02T03:19:28.781Z,102101.28
2018-07-02T03:23:00.384Z,102096.35
2018-07-02T03:25:28.689Z,102102.61
2018-07-02T03:27:56.994Z,102107.05
2018-07-02T03:30:25.341Z,102109.82
2018-07-02T03:32:53.589Z,102111.17
2018-07-02T03:35:22.003Z,102106.73
2018-07-02T03:37:50.282Z,102107.22
2018-07-02T03:40:19.576Z,102105.19
2018-07-02T03:42:47.918Z,102107.23
2018-07-02T03:45:16.201Z,102105.18
2018-07-02T03:47:44.461Z,102109.76
2018-07-02T03:50:12.789Z,102104.70
2018-07-02T03:52:41.051Z,102104.80
2018-07-02T03:55:09.341Z,102103.36
2018-07-02T03:57:37.605Z,102109.11
2018-07-02T04:00:05.953Z,102106.70
2018-07-02T04:02:34.317Z,102106.83
2018-07-02T04:05:02.604Z,102106.92
2018-07-02T04:07:30.957Z,102110.52
2018-07-02T04:09:59.237Z,102111.48
2018-07-02T04:12:27.504Z,102109.50
2018-07-02T04:14:55.797Z,102111.16
2018-07-02T04:17:24.049Z,102107.63
2018-07-02T04:19:52.365Z,102109.16
2018-07-02T04:22:20.625Z,102109.48
2018-07-02T04:24:48.980Z,102105.52
2018-07-02T04:27:17.252Z,102105.93
2018-07-02T04:29:45.540Z,102114.30
2018-07-02T04:32:13.861Z,102108.88
2018-07-02T04:34:42.130Z,102111.88
2018-07-02T04:37:10.418Z,102112.33
2018-07-02T04:39:38.677Z,102105.27
2018-07-02T04:42:07.013Z,102109.42
2018-07-02T04:44:35.281Z,102106.97
2018-07-02T04:47:03.568Z,102108.63
2018-07-02T04:49:31.830Z,102108.53
2018-07-02T04:52:00.148Z,102103.08
2018-07-02T04:54:28.421Z,102109.08
2018-07-02T04:56:56.730Z,102103.70
2018-07-02T04:59:24.985Z,102104.84
2018-07-02T05:01:53.386Z,102108.67
2018-07-02T05:04:21.737Z,102110.28
2018-07-02T05:06:50.017Z,102103.89
2018-07-02T05:09:18.281Z,102106.31
2018-07-02T05:11:46.581Z,102104.52
2018-07-02T05:14:14.930Z,102099.44
2018-07-02T05:16:43.252Z,102095.39
2018-07-02T05:19:11.529Z,102095.34
2018-07-02T05:21:39.895Z,102090.13
2018-07-02T05:24:07.841Z,102089.08
2018-07-02T05:26:36.085Z,102090.30
2018-07-02T05:29:04.394Z,102098.11
2018-07-02T05:31:32.670Z,102092.80
2018-07-02T05:34:00.953Z,102093.93
2018-07-02T05:36:29.512Z,102092.89
2018-07-02T05:38:58.012Z,102090.95
2018-07-02T05:41:26.289Z,102091.57
2018-07-02T05:43:54.597Z,102099.13
2018-07-02T05:46:23.273Z,102101.14
2018-07-02T05:48:51.605Z,102097.41
2018-07-02T05:51:19.895Z,102097.41
2018-07-02T05:53:48.209Z,102098.58
2018-07-02T05:56:16.497Z,102101.08
2018-07-02T05:58:44.818Z,102099.73
2018-07-02T06:01:13.095Z,102104.28
2018-07-02T06:03:41.423Z,102098.56
2018-07-02T06:06:09.750Z,102099.78
2018-07-02T06:08:38.062Z,102103.95
2018-07-02T06:11:06.349Z,102101.00
2018-07-02T06:16:33.614Z,102098.58
2018-07-02T06:19:01.913Z,102097.75
2018-07-02T06:21:30.189Z,102097.41
2018-07-02T06:23:58.510Z,102095.06
2018-07-02T06:26:26.979Z,102101.81
2018-07-02T06:28:55.325Z,102104.39
2018-07-02T06:31:23.613Z,102100.99
2018-07-02T06:33:51.889Z,102099.80
2018-07-02T06:36:20.378Z,102096.31
2018-07-02T06:38:48.697Z,102097.56
2018-07-02T06:41:17.021Z,102095.94
2018-07-02T06:43:45.273Z,102099.27
2018-07-02T06:46:13.607Z,102097.89
2018-07-02T06:48:41.889Z,102095.01
2018-07-02T06:51:11.209Z,102091.02
2018-07-02T06:53:39.485Z,102088.42
2018-07-02T06:56:07.765Z,102088.85
2018-07-02T06:58:36.072Z,102091.59
2018-07-02T07:01:04.320Z,102091.42
2018-07-02T07:03:32.597Z,102092.48
2018-07-02T07:06:01.008Z,102091.20
2018-07-02T07:08:29.319Z,102094.90
2018-07-02T07:10:57.598Z,102091.06
2018-07-02T07:13:25.861Z,102095.97
2018-07-02T07:15:54.192Z,102084.63
2018-07-02T07:18:22.465Z,102089.77
2018-07-02T07:20:50.813Z,102085.34
2018-07-02T07:23:19.093Z,102086.80
2018-07-02T07:25:47.384Z,102084.55
2018-07-02T07:28:15.660Z,102083.83
2018-07-02T07:30:43.929Z,102083.34
2018-07-02T07:33:12.301Z,102084.94
2018-07-02T07:35:40.576Z,102084.31
2018-07-02T07:38:08.877Z,102086.67
2018-07-02T07:40:37.148Z,102081.44
2018-07-02T07:43:05.461Z,102079.27
2018-07-02T07:45:33.717Z,102075.25
2018-07-02T07:48:02.022Z,102071.50
2018-07-02T07:50:30.277Z,102073.20
2018-07-02T07:52:58.578Z,102069.34
2018-07-02T07:55:26.844Z,102065.61
2018-07-02T07:57:55.167Z,102057.83
2018-07-02T08:00:23.442Z,102062.00
2018-07-02T08:02:51.750Z,102057.28
2018-07-02T08:05:20.018Z,102056.92
2018-07-02T08:07:48.319Z,102055.08
2018-07-02T08:10:16.629Z,102038.77
2018-07-02T08:12:44.926Z,102046.51
2018-07-02T08:15:13.178Z,102046.59
2018-07-02T08:17:41.497Z,102052.23
2018-07-02T08:20:09.800Z,102045.93
2018-07-02T08:22:38.060Z,102038.06
2018-07-02T08:25:06.469Z,102043.40
2018-07-02T08:27:34.745Z,102037.53
2018-07-02T08:30:03.401Z,102031.69
2018-07-02T08:32:31.733Z,102033.64
2018-07-02T08:35:00.081Z,102029.27
2018-07-02T08:37:28.328Z,102025.88
2018-07-02T08:39:56.709Z,102029.87
2018-07-02T08:42:24.961Z,102023.94
2018-07-02T08:44:53.248Z,102024.59
2018-07-02T08:47:21.545Z,102020.91
2018-07-02T08:49:49.909Z,102018.97
2018-07-02T08:52:18.185Z,102019.34
2018-07-02T08:54:46.534Z,102020.92
2018-07-02T08:57:14.801Z,102016.36
2018-07-02T08:59:43.184Z,102015.63
2018-07-02T09:02:11.495Z,102009.49
2018-07-02T09:04:39.964Z,102009.00
2018-07-02T09:07:08.300Z,102013.92
2018-07-02T09:09:36.674Z,102006.20
2018-07-02T09:12:04.981Z,102005.47
2018-07-02T09:14:33.250Z,101999.61
2018-07-02T09:17:01.637Z,102000.42
2018-07-02T09:19:30.910Z,102001.25
2018-07-02T09:21:59.318Z,101997.30
2018-07-02T09:24:27.640Z,101991.52
2018-07-02T09:26:55.922Z,101994.66
2018-07-02T09:29:24.220Z,101990.18
2018-07-02T09:31:52.549Z,101991.05
2018-07-02T09:34:20.800Z,101991.58
2018-07-02T09:36:49.101Z,101992.13
2018-07-02T09:39:17.386Z,101986.28
2018-07-02T09:41:45.689Z,101988.16
2018-07-02T09:44:13.989Z,101989.98
2018-07-02T09:46:42.306Z,101991.44
2018-07-02T09:49:10.584Z,101987.65
2018-07-02T09:51:39.155Z,101984.31
2018-07-02T09:54:07.432Z,101988.75
2018-07-02T09:56:35.717Z,101983.53
2018-07-02T09:59:04.000Z,101986.91
2018-07-02T10:01:32.270Z,101978.91
2018-07-02T10:04:00.600Z,101986.55
2018-07-02T10:06:28.933Z,101982.27
2018-07-02T10:08:57.189Z,101989.37
2018-07-02T10:11:25.497Z,101988.86
2018-07-02T10:13:53.861Z,101983.64
2018-07-02T10:16:22.177Z,101980.83
2018-07-02T10:18:50.472Z,101985.97
2018-07-02T10:21:18.848Z,101985.47
2018-07-02T10:23:47.132Z,101987.16
2018-07-02T10:26:15.505Z,101992.34
2018-07-02T10:28:43.780Z,101996.09
2018-07-02T10:31:12.099Z,101991.24
2018-07-02T10:33:40.332Z,101985.80
2018-07-02T10:36:08.592Z,101981.95
2018-07-02T10:38:36.884Z,101984.31
2018-07-02T10:41:05.169Z,101986.40
2018-07-02T10:43:33.446Z,101983.42
2018-07-02T10:46:01.705Z,101979.78
2018-07-02T10:49:00.954Z,101977.73
2018-07-02T10:51:29.278Z,101981.71
2018-07-02T10:53:57.771Z,101977.58
2018-07-02T10:56:26.013Z,101973.62
2018-07-02T10:58:54.313Z,101971.72
2018-07-02T11:01:22.603Z,101972.89
2018-07-02T11:03:50.885Z,101976.91
2018-07-02T11:06:19.256Z,101970.58
2018-07-02T11:08:47.567Z,101968.12
2018-07-02T11:11:15.915Z,101967.92
2018-07-02T11:13:44.262Z,101969.13
2018-07-02T11:16:12.547Z,101969.50
2018-07-02T11:18:40.795Z,101962.05
2018-07-02T11:21:09.101Z,101963.56
2018-07-02T11:23:37.374Z,101971.42
2018-07-02T11:26:05.671Z,101968.11
2018-07-02T11:28:33.933Z,101962.80
2018-07-02T11:31:02.329Z,101966.72
2018-07-02T11:33:30.674Z,101954.90
2018-07-02T11:35:58.965Z,101959.08
2018-07-02T11:38:27.257Z,101956.86
2018-07-02T11:40:55.554Z,101949.50
2018-07-02T11:43:23.849Z,101952.67
2018-07-02T11:45:52.226Z,101952.52
2018-07-02T11:48:20.481Z,101950.43
2018-07-02T11:50:48.765Z,101952.66
2018-07-02T11:53:17.025Z,101955.39
2018-07-02T11:55:45.289Z,101951.75
2018-07-02T11:58:13.670Z,101953.55
2018-07-02T12:00:41.930Z,101945.84
2018-07-02T12:03:10.241Z,101947.75
2018-07-02T12:05:38.513Z,101946.86
2018-07-02T12:08:06.876Z,101947.77
2018-07-02T12:10:35.133Z,101944.63
2018-07-02T12:13:03.525Z,101941.25
2018-07-02T12:15:31.799Z,101940.23
2018-07-02T12:18:00.096Z,101945.68
2018-07-02T12:20:28.381Z,101930.66
2018-07-02T12:22:56.666Z,101926.34
2018-07-02T12:25:24.932Z,101929.23
2018-07-02T12:27:53.234Z,101930.88
2018-07-02T12:30:21.496Z,101927.68
2018-07-02T12:32:49.781Z,101919.16
2018-07-02T12:35:18.037Z,101926.29
2018-07-02T12:37:46.321Z,101932.52
2018-07-02T12:40:14.581Z,101939.44
2018-07-02T12:42:42.873Z,101936.50
2018-07-02T12:45:11.133Z,101934.27
2018-07-02T12:47:39.429Z,101933.77
2018-07-02T12:50:08.028Z,101931.19
2018-07-02T12:52:36.237Z,101932.47
2018-07-02T12:55:04.533Z,101934.59
2018-07-02T12:57:32.799Z,101937.17
2018-07-02T13:00:01.109Z,101931.05
2018-07-02T13:02:29.357Z,101936.63
2018-07-02T13:04:57.671Z,101932.02
2018-07-02T13:07:25.922Z,101926.17
2018-07-02T13:09:55.234Z,101925.09
2018-07-02T13:12:23.493Z,101921.44
2018-07-02T13:14:51.805Z,101917.42
2018-07-02T13:17:20.064Z,101917.51
2018-07-02T13:19:48.413Z,101916.02
2018-07-02T13:22:16.666Z,101907.27
2018-07-02T13:24:44.949Z,101906.84
2018-07-02T13:27:13.204Z,101900.41
2018-07-02T13:29:41.757Z,101902.59
2018-07-02T13:32:10.035Z,101901.28
2018-07-02T13:34:38.329Z,101890.61
2018-07-02T13:37:06.794Z,101893.06
2018-07-02T13:39:34.946Z,101899.31
2018-07-02T13:42:03.249Z,101901.98
2018-07-02T13:44:31.534Z,101895.92
2018-07-02T13:47:01.226Z,101890.63
2018-07-02T13:49:31.278Z,101888.09
2018-07-02T13:52:00.098Z,101889.88
2018-07-02T13:54:28.345Z,101879.29
2018-07-02T13:56:56.625Z,101880.39
2018-07-02T13:59:25.004Z,101874.11
2018-07-02T14:01:56.259Z,101872.38
2018-07-02T14:04:36.993Z,101872.30
2018-07-02T14:07:20.498Z,101878.59
2018-07-02T14:09:48.762Z,101869.91
2018-07-02T14:12:17.146Z,101869.38
2018-07-02T14:14:45.397Z,101866.09
2018-07-02T14:17:13.689Z,101865.92
2018-07-02T14:19:41.976Z,101871.42
2018-07-02T14:22:10.281Z,101875.25
2018-07-02T14:24:38.673Z,101870.66
2018-07-02T14:27:06.988Z,101866.55
2018-07-02T14:29:35.333Z,101866.55
2018-07-02T14:32:03.618Z,101867.63
2018-07-02T14:34:31.878Z,101862.38
2018-07-02T14:37:00.241Z,101864.04
2018-07-02T14:39:28.546Z,101862.94
2018-07-02T14:41:56.862Z,101853.28
2018-07-02T14:44:25.125Z,101858.56
2018-07-02T14:46:53.413Z,101850.28
2018-07-02T14:49:21.957Z,101853.33
2018-07-02T14:51:50.280Z,101846.66
2018-07-02T14:54:18.602Z,101853.69
2018-07-02T14:56:46.874Z,101848.84
2018-07-02T14:59:16.086Z,101846.42
2018-07-02T15:01:44.377Z,101843.47
2018-07-02T15:04:13.714Z,101848.63
2018-07-02T15:09:32.437Z,101843.63
2018-07-02T15:12:00.691Z,101844.11
2018-07-02T15:14:29.957Z,101836.38
2018-07-02T15:16:58.230Z,101839.53
2018-07-02T15:19:26.504Z,101833.11
2018-07-02T15:21:55.181Z,101837.43
2018-07-02T15:24:23.776Z,101823.64
2018-07-02T15:26:52.285Z,101827.83
2018-07-02T15:29:20.553Z,101821.75
2018-07-02T15:31:48.829Z,101823.42
2018-07-02T15:34:17.086Z,101820.36
2018-07-02T15:36:45.341Z,101811.88
2018-07-02T15:39:13.634Z,101817.18
2018-07-02T15:41:41.983Z,101825.67
2018-07-02T15:44:11.203Z,101814.56
2018-07-02T15:46:39.464Z,101817.03
2018-07-02T15:49:07.877Z,101808.54
2018-07-02T15:51:37.129Z,101811.87
2018-07-02T15:54:05.445Z,101815.02
2018-07-02T15:56:33.775Z,101805.28
2018-07-02T15:59:02.050Z,101809.53
2018-07-02T16:01:30.445Z,101807.06
2018-07-02T16:03:58.769Z,101803.50
2018-07-02T16:06:27.070Z,101797.55
2018-07-02T16:08:55.329Z,101801.52
2018-07-02T16:11:23.634Z,101793.28
2018-07-02T16:13:51.991Z,101796.39
2018-07-02T16:16:20.261Z,101796.55
2018-07-02T16:18:48.518Z,101798.42
2018-07-02T16:21:16.790Z,101792.72
2018-07-02T16:23:45.030Z,101789.20
2018-07-02T16:26:13.345Z,101786.21
2018-07-02T16:28:42.692Z,101781.02
2018-07-02T16:31:11.013Z,101780.64
2018-07-02T16:33:39.258Z,101770.30
2018-07-02T16:36:07.529Z,101778.44
2018-07-02T16:38:35.765Z,101776.50
2018-07-02T16:41:04.069Z,101777.53
2018-07-02T16:43:32.317Z,101777.91
2018-07-02T16:46:00.613Z,101772.62
2018-07-02T16:48:28.878Z,101767.23
2018-07-02T16:50:57.142Z,101767.78
2018-07-02T16:53:25.457Z,101769.82
2018-07-02T16:55:53.745Z,101766.16
2018-07-02T16:58:22.052Z,101763.89
2018-07-02T17:00:50.353Z,101768.46
2018-07-02T17:03:18.676Z,101761.78
2018-07-02T17:05:48.294Z,101763.92
2018-07-02T17:08:16.583Z,101756.21
2018-07-02T17:10:44.887Z,101755.50
2018-07-02T17:13:13.236Z,101757.77
2018-07-02T17:15:41.605Z,101754.25
2018-07-02T17:18:09.874Z,101760.66
2018-07-02T17:20:38.122Z,101750.48
2018-07-02T17:23:06.562Z,101753.16
2018-07-02T17:25:34.839Z,101747.26
2018-07-02T17:32:51.437Z,101749.79
2018-07-02T17:35:20.713Z,101732.77
2018-07-02T17:37:49.097Z,101738.15
2018-07-02T17:40:17.401Z,101742.66
2018-07-02T17:42:46.666Z,101742.34
2018-07-02T17:45:15.933Z,101740.69
2018-07-02T17:47:45.281Z,101736.20
2018-07-02T17:50:13.569Z,101738.87
2018-07-02T17:52:41.934Z,101741.02
2018-07-02T17:55:10.229Z,101740.30
2018-07-02T17:57:38.578Z,101737.89
2018-07-02T18:00:07.232Z,101735.22
2018-07-02T18:02:35.493Z,101733.17
2018-07-02T18:05:03.937Z,101734.13
2018-07-02T18:07:32.289Z,101735.41
2018-07-02T18:10:00.566Z,101732.48
2018-07-02T18:12:28.809Z,101734.30
2018-07-02T18:14:57.157Z,101735.50
2018-07-02T18:17:25.521Z,101731.73
2018-07-02T18:19:53.749Z,101729.69
2018-07-02T18:22:22.005Z,101726.45
2018-07-02T18:24:50.325Z,101723.16
2018-07-02T18:27:18.602Z,101727.39
2018-07-02T18:29:46.881Z,101735.66
2018-07-02T18:32:15.181Z,101731.23
2018-07-02T18:34:43.465Z,101736.16
2018-07-02T18:37:11.833Z,101739.11
2018-07-02T18:39:40.105Z,101737.27
2018-07-02T18:42:08.358Z,101738.94
2018-07-02T18:44:36.645Z,101732.25
2018-07-02T18:47:05.056Z,101729.30
2018-07-02T18:49:33.361Z,101733.44
2018-07-02T18:52:01.641Z,101733.67
2018-07-02T18:54:30.913Z,101738.83
2018-07-02T18:57:01.209Z,101743.19
2018-07-02T18:59:29.517Z,101743.69
2018-07-02T19:01:57.760Z,101740.53
2018-07-02T19:04:26.061Z,101742.61
2018-07-02T19:06:54.309Z,101743.41
2018-07-02T19:09:23.620Z,101749.27
2018-07-02T19:11:52.908Z,101753.00
2018-07-02T19:14:21.180Z,101755.35
2018-07-02T19:16:49.459Z,101759.30
2018-07-02T19:19:18.832Z,101752.45
2018-07-02T19:21:47.071Z,101754.15
2018-07-02T19:24:15.325Z,101763.06
2018-07-02T19:26:43.594Z,101766.77
2018-07-02T19:29:11.865Z,101758.92
2018-07-02T19:31:40.241Z,101766.54
2018-07-02T19:34:09.517Z,101772.33
2018-07-02T19:36:37.863Z,101778.77
2018-07-02T19:39:10.616Z,101779.90
2018-07-02T19:41:38.893Z,101785.45
2018-07-02T19:44:07.168Z,101781.75
2018-07-02T19:46:36.601Z,101782.58
2018-07-02T19:49:04.949Z,101786.72
2018-07-02T19:51:35.313Z,101784.93
2018-07-02T19:54:03.861Z,101784.02
2018-07-02T19:56:33.176Z,101798.69
2018-07-02T19:59:01.429Z,101794.87
2018-07-02T20:01:29.801Z,101776.39
2018-07-02T20:03:58.149Z,101787.50
2018-07-02T20:06:27.731Z,101790.16
2018-07-02T20:08:56.001Z,101794.17
2018-07-02T20:11:24.685Z,101795.20
2018-07-02T20:13:53.070Z,101792.69
2018-07-02T20:16:21.333Z,101799.20
2018-07-02T20:18:49.666Z,101799.44
2018-07-02T20:21:17.876Z,101803.78
2018-07-02T20:23:46.183Z,101806.92
2018-07-02T20:26:14.460Z,101798.82
2018-07-02T20:28:42.853Z,101796.67
2018-07-02T20:31:11.122Z,101802.67
2018-07-02T20:33:40.465Z,101803.65
2018-07-02T20:36:08.752Z,101809.66
2018-07-02T20:38:37.033Z,101808.52
2018-07-02T20:41:05.337Z,101813.63
2018-07-02T20:43:33.594Z,101808.48
2018-07-02T20:46:01.964Z,101802.66
2018-07-02T20:48:30.669Z,101797.32
2018-07-02T20:50:58.927Z,101802.33
2018-07-02T20:53:27.208Z,101801.31
2018-07-02T20:55:55.492Z,101806.80
2018-07-02T20:58:23.792Z,101806.13
2018-07-02T21:00:52.085Z,101804.62
2018-07-02T21:03:20.417Z,101804.94
2018-07-02T21:05:48.669Z,101803.94
2018-07-02T21:08:16.953Z,101809.57
2018-07-02T21:10:46.249Z,101812.89
2018-07-02T21:13:14.598Z,101809.22
2018-07-02T21:15:42.891Z,101816.03
2018-07-02T21:18:11.145Z,101809.94
2018-07-02T21:20:39.437Z,101814.75
2018-07-02T21:23:07.705Z,101819.60
2018-07-02T21:25:35.980Z,101814.36
2018-07-02T21:28:04.281Z,101819.67
2018-07-02T21:30:32.600Z,101815.45
2018-07-02T21:33:00.881Z,101815.94
2018-07-02T21:35:29.165Z,101819.26
2018-07-02T21:37:57.482Z,101821.16
2018-07-02T21:40:25.769Z,101825.80
2018-07-02T21:42:54.030Z,101817.18
2018-07-02T21:45:22.323Z,101815.88
2018-07-02T21:47:50.592Z,101820.91
2018-07-02T21:50:18.889Z,101817.36
2018-07-02T21:52:47.210Z,101809.95
2018-07-02T21:55:15.492Z,101815.42
2018-07-02T21:57:43.749Z,101809.52
2018-07-02T22:00:13.653Z,101811.02
2018-07-02T22:02:42.106Z,101812.39
2018-07-02T22:05:10.610Z,101814.44
2018-07-02T22:07:41.023Z,101817.55
2018-07-02T22:10:09.590Z,101816.81
2018-07-02T22:12:38.350Z,101816.38
2018-07-02T22:15:07.657Z,101808.86
2018-07-02T22:17:35.921Z,101806.83
2018-07-02T22:20:04.617Z,101808.14
2018-07-02T22:22:32.902Z,101811.80
2018-07-02T22:25:02.170Z,101808.53
2018-07-02T22:27:30.467Z,101816.81
2018-07-02T22:29:58.733Z,101810.95
2018-07-02T22:32:26.976Z,101810.06
2018-07-02T22:34:55.241Z,101810.94
2018-07-02T22:37:23.494Z,101813.33
2018-07-02T22:39:51.740Z,101811.30
2018-07-02T22:42:20.106Z,101810.09
2018-07-02T22:44:48.383Z,101814.48
2018-07-02T22:47:16.624Z,101808.27
2018-07-02T22:49:44.950Z,101809.84
2018-07-02T22:52:13.201Z,101813.16
2018-07-02T22:54:41.460Z,101811.18
2018-07-02T22:57:09.758Z,101813.18
2018-07-02T22:59:38.006Z,101806.89
2018-07-02T23:02:07.349Z,101808.87
2018-07-02T23:04:35.644Z,101813.94
2018-07-02T23:07:06.052Z,101810.59
2018-07-02T23:09:34.341Z,101804.97
2018-07-02T23:12:02.629Z,101807.13
2018-07-02T23:14:30.933Z,101800.84
2018-07-02T23:16:59.185Z,101809.73
2018-07-02T23:19:28.573Z,101807.28
2018-07-02T23:21:56.836Z,101801.24
2018-07-02T23:24:25.126Z,101803.24
2018-07-02T23:26:54.394Z,101805.59
2018-07-02T23:29:22.695Z,101800.35
2018-07-02T23:31:50.965Z,101803.68
2018-07-02T23:34:19.352Z,101796.84
2018-07-02T23:36:47.741Z,101802.67
2018-07-02T23:39:16.205Z,101804.14
2018-07-02T23:41:44.704Z,101806.86
2018-07-02T23:44:12.953Z,101806.58
2018-07-02T23:46:41.280Z,101806.08
2018-07-02T23:49:09.613Z,101801.92
2018-07-02T23:51:37.914Z,101802.85
2018-07-02T23:54:06.197Z,101798.59
2018-07-02T23:56:34.501Z,101800.26
2018-07-02T23:59:03.826Z,101804.84
